!!! Benutzen Sie für Ihre Flugvorbereitung die offiziellen Quellen !!!

Metar:

EDQM 261820Z 00000KT CAVOK 03/00 Q1011

QNH: 1011
Temperatur: 3
Dew Point : 0

 

METAR (decoded)